Flight Track Log - Related Links

Times and Time Zones

All times are in EDT time to prevent confusion due to time zone crossing. See the KAP550 flight status page for this flight to view local times or setup timezone preferences in your user account.

Time Position Orientation Groundspeed Altitude Reporting Facility
EDT Latitude Longitude Course Direction KTS MPH feet Rate Location/Type
Tue 06:28:04 PM 42.7214 -73.8108 265° West 112 129 1,600  Level Boston Center
Tue 06:29:04 PM 42.7189 -73.8531 265° West 125 144 2,700 1,091 Climbing Boston Center
Tue 06:30:05 PM 42.7392 -73.8931 305° West 153 176 3,800 1,082 Climbing Boston Center
Tue 06:31:06 PM 42.7786 -73.9081 344° North 153 176 4,900 893 Climbing Boston Center
Tue 06:32:06 PM 42.8139 -73.9231 343° North 134 154 5,600 661 Climbing Boston Center
Tue 06:33:13 PM 42.8594 -73.9414 344° North 147 169 6,300 563 Climbing Boston Center
Tue 06:34:14 PM 42.9008 -73.9564 345° North 157 181 6,800 545 Climbing Boston Center
Tue 06:35:14 PM 42.9422 -73.9772 340° North 158 182 7,400 595 Climbing Boston Center
Tue 06:36:15 PM 42.9858 -73.9983 341° North 157 181 8,000 563 Climbing Boston Center
Tue 06:37:22 PM 43.0336 -74.0136 347° North 156 180 8,600 283 Climbing Boston Center
Tue 06:38:22 PM 43.0811 -74.0347 342° North 180 207 8,600  Level Boston Center
Tue 06:40:15 PM 43.1744 -74.0714 344° North 199 229 8,600  Level Boston Center
Tue 06:41:15 PM 43.2181 -74.0897 343° North 194 223 8,600 -50 Level Boston Center
Tue 06:42:15 PM 43.2758 -74.1169 341° North 194 223 8,500  Descending Boston Center
Tue 06:43:15 PM 43.3194 -74.1353 343° North 184 212 8,600 50 Climbing Boston Center
Tue 06:44:15 PM 43.3753 -74.1597 342° North 184 212 8,600 -50 Level Boston Center
Tue 06:45:15 PM 43.4250 -74.1811 343° North 184 212 8,500  Descending Boston Center
Tue 06:46:15 PM 43.4747 -74.1967 347° North 184 212 8,600  Climbing Boston Center
Tue 06:47:15 PM 43.5203 -74.2181 341° North 184 212 8,500 -50 Descending Boston Center
Tue 06:48:15 PM 43.5678 -74.2397 342° North 184 212 8,500  Level Boston Center
Tue 06:49:15 PM 43.6175 -74.2611 343° North 184 212 8,500 50 Level Boston Center
Tue 06:50:15 PM 43.6653 -74.2797 344° North 179 206 8,600 50 Climbing Boston Center
Tue 06:51:15 PM 43.7128 -74.2986 344° North 184 212 8,600  Level Boston Center
Tue 06:52:15 PM 43.7606 -74.3200 342° North 184 212 8,600  Level Boston Center
Tue 06:53:15 PM 43.8100 -74.3447 340° North 184 212 8,600 -50 Level Boston Center
Tue 06:54:15 PM 43.8578 -74.3636 344° North 184 212 8,500  Descending Boston Center
Tue 06:55:15 PM 43.9053 -74.3853 342° North 178 205 8,600 50 Climbing Boston Center
Tue 06:56:15 PM 43.9550 -74.4042 345° North 178 205 8,600  Level Boston Center
Tue 06:57:15 PM 44.0025 -74.4286 340° North 183 211 8,600  Level Boston Center
Tue 06:58:15 PM 44.0500 -74.4447 346° North 183 211 8,600 -50 Level Boston Center
Tue 06:59:15 PM 44.1017 -74.4697 341° North 183 211 8,500 -50 Descending Boston Center
Tue 07:00:15 PM 44.1472 -74.4914 341° North 183 211 8,500 50 Level Boston Center
Tue 07:01:15 PM 44.1969 -74.5106 345° North 183 211 8,600 -50 Climbing Boston Center
Tue 07:02:15 PM 44.2464 -74.5325 342° North 183 211 8,400 -200 Descending Boston Center
Tue 07:03:15 PM 44.2981 -74.5547 343° North 183 211 8,200 -200 Descending Boston Center
Tue 07:04:15 PM 44.3497 -74.5769 343° North 183 211 8,000 -200 Descending Boston Center
Tue 07:05:15 PM 44.4036 -74.6019 342° North 188 216 7,800 -400 Descending Boston Center
Tue 07:06:15 PM 44.4572 -74.6244 343° North 193 222 7,200 -550 Descending Boston Center
Tue 07:07:15 PM 44.5108 -74.6525 340° North 193 222 6,700 -450 Descending Boston Center
Tue 07:08:15 PM 44.5625 -74.6747 343° North 193 222 6,300 -550 Descending Boston Center
Tue 07:09:15 PM 44.6164 -74.6972 343° North 198 228 5,600 -700 Descending Boston Center
Tue 07:10:15 PM 44.6658 -74.7225 340° North 198 228 4,900 -700 Descending Boston Center

Login

Don't have an account? Register now (free) for customized features, flight alerts, and more!